Time;durP1;ratioP1;P1;durP2;ratioP2;P2;SDS_P1;SDS_P2;PMS_P1;PMS_P2;Temp;Humidity;BMP_temperature;BMP_pressure;BME280_temperature;BME280_humidity;BME280_pressure;Samples;Min_cycle;Max_cycle;Signal;HPM_P1;HPM_P2
2021/09/04 00:02:23;;;;;;;15.40;13.23;;;17.60;99.90;;;;;;5108924;28;20287;-73
2021/09/04 00:04:50;;;;;;;15.83;13.93;;;17.60;99.90;;;;;;5108863;28;20544;-73
2021/09/04 00:07:18;;;;;;;16.30;13.67;;;17.50;99.90;;;;;;5108372;28;20709;-73
2021/09/04 00:09:44;;;;;;;19.07;13.20;;;17.50;99.90;;;;;;5108808;28;20206;-73
2021/09/04 00:12:11;;;;;;;15.77;14.17;;;17.50;99.90;;;;;;5108900;28;20689;-73
2021/09/04 00:14:38;;;;;;;15.80;13.60;;;17.50;99.90;;;;;;5108775;28;20206;-73
2021/09/04 00:17:05;;;;;;;14.73;13.13;;;17.50;99.90;;;;;;5108540;28;20206;-72
2021/09/04 00:19:32;;;;;;;15.07;12.80;;;17.50;99.90;;;;;;5108831;28;20275;-73
2021/09/04 00:21:58;;;;;;;17.10;13.73;;;17.40;99.90;;;;;;5108587;28;20213;-73
2021/09/04 00:24:26;;;;;;;16.97;13.57;;;17.40;99.90;;;;;;5108394;28;20616;-73
2021/09/04 00:26:53;;;;;;;15.30;12.47;;;17.40;99.90;;;;;;5108699;28;20206;-73
2021/09/04 00:29:20;;;;;;;14.97;13.23;;;17.40;99.90;;;;;;5108588;28;20575;-73
2021/09/04 00:31:48;;;;;;;20.03;13.07;;;17.30;99.90;;;;;;5108351;28;20230;-73
2021/09/04 00:34:14;;;;;;;15.13;13.20;;;17.30;99.90;;;;;;5109001;28;20241;-73
2021/09/04 00:36:41;;;;;;;14.87;13.20;;;17.30;99.90;;;;;;5108529;28;20236;-73
2021/09/04 00:39:08;;;;;;;15.23;12.70;;;17.20;99.90;;;;;;5108588;28;20671;-72
2021/09/04 00:41:36;;;;;;;15.33;12.93;;;17.20;99.90;;;;;;5108244;28;20695;-73
2021/09/04 00:44:03;;;;;;;16.30;14.27;;;17.20;99.90;;;;;;5108566;28;20210;-73
2021/09/04 00:46:30;;;;;;;17.53;13.57;;;17.20;99.90;;;;;;5108388;28;20234;-73
2021/09/04 00:48:57;;;;;;;17.30;13.43;;;17.10;99.90;;;;;;5108414;28;20299;-73
2021/09/04 00:51:23;;;;;;;14.60;12.90;;;17.10;99.90;;;;;;5108207;28;21030;-73
2021/09/04 00:53:51;;;;;;;18.63;14.10;;;17.10;99.90;;;;;;5108470;28;20245;-73
2021/09/04 00:56:17;;;;;;;16.03;13.40;;;17.10;99.90;;;;;;5108695;28;20283;-73
2021/09/04 00:58:45;;;;;;;15.60;13.43;;;17.10;99.90;;;;;;5112256;28;20206;-73
2021/09/04 01:01:12;;;;;;;15.33;13.13;;;17.10;99.90;;;;;;5112246;28;20673;-73
2021/09/04 01:03:39;;;;;;;15.27;12.63;;;17.00;99.90;;;;;;5112333;28;20206;-73
2021/09/04 01:06:05;;;;;;;16.40;13.80;;;17.00;99.90;;;;;;5112085;28;20605;-73
2021/09/04 01:08:32;;;;;;;21.27;14.50;;;16.90;99.90;;;;;;5112243;28;20286;-73
2021/09/04 01:10:59;;;;;;;17.17;13.77;;;16.90;99.90;;;;;;5111880;28;20218;-73
2021/09/04 01:13:25;;;;;;;17.83;14.00;;;16.90;99.90;;;;;;5112024;27;20237;-73
2021/09/04 01:15:53;;;;;;;18.43;14.47;;;16.90;99.90;;;;;;5111523;28;20202;-73
2021/09/04 01:18:20;;;;;;;15.60;13.90;;;16.80;99.90;;;;;;5111887;28;20235;-72
2021/09/04 01:20:46;;;;;;;16.67;14.00;;;16.80;99.90;;;;;;5111709;28;20198;-73
2021/09/04 01:23:13;;;;;;;19.83;14.10;;;16.80;99.90;;;;;;5112011;28;20233;-73
2021/09/04 01:25:41;;;;;;;15.73;13.97;;;16.80;99.90;;;;;;5111875;28;20210;-73
2021/09/04 01:28:09;;;;;;;16.93;14.33;;;16.80;99.90;;;;;;5111439;28;20664;-73
2021/09/04 01:30:36;;;;;;;17.23;14.43;;;16.80;99.90;;;;;;5111612;28;20206;-73
2021/09/04 01:33:02;;;;;;;18.53;14.47;;;16.70;99.90;;;;;;5111544;28;20202;-73
2021/09/04 01:35:29;;;;;;;17.67;14.33;;;16.70;99.90;;;;;;5111423;28;20202;-73
2021/09/04 01:37:56;;;;;;;16.13;13.90;;;16.70;99.90;;;;;;5111526;28;20255;-73
2021/09/04 01:40:22;;;;;;;16.97;14.80;;;16.70;99.90;;;;;;5111431;28;20210;-73
2021/09/04 01:42:50;;;;;;;16.43;14.33;;;16.70;99.90;;;;;;5111248;28;20229;-73
2021/09/04 01:45:18;;;;;;;18.43;14.67;;;16.70;99.90;;;;;;5109789;28;20977;-72
2021/09/04 01:47:45;;;;;;;17.03;14.70;;;16.70;99.90;;;;;;5111006;28;20672;-73
2021/09/04 01:50:13;;;;;;;17.50;14.13;;;16.70;99.90;;;;;;5111229;28;20240;-73
2021/09/04 01:52:42;;;;;;;18.37;14.90;;;16.60;99.90;;;;;;5110828;28;20696;-73
2021/09/04 01:55:10;;;;;;;19.13;14.40;;;16.60;99.90;;;;;;5110787;28;20237;-72
2021/09/04 01:57:38;;;;;;;21.57;15.23;;;16.60;99.90;;;;;;5111089;28;20203;-73
2021/09/04 02:00:07;;;;;;;17.37;14.50;;;16.50;99.90;;;;;;5110707;28;20678;-73
2021/09/04 02:02:35;;;;;;;16.23;14.10;;;16.50;99.90;;;;;;5110724;28;20216;-73
2021/09/04 02:05:01;;;;;;;19.50;14.43;;;16.50;99.90;;;;;;5111011;28;20233;-73
2021/09/04 02:07:29;;;;;;;17.30;14.87;;;16.50;99.90;;;;;;5110546;28;20237;-73
2021/09/04 02:09:56;;;;;;;19.30;15.13;;;16.50;99.90;;;;;;5111051;28;20237;-73
2021/09/04 02:12:23;;;;;;;17.50;14.53;;;16.40;99.90;;;;;;5110816;28;20642;-73
2021/09/04 02:14:50;;;;;;;16.83;14.63;;;16.40;99.90;;;;;;5110632;28;20275;-73
2021/09/04 02:17:16;;;;;;;19.47;14.10;;;16.40;99.90;;;;;;5110945;28;20210;-73
2021/09/04 02:19:45;;;;;;;18.93;15.13;;;16.40;99.90;;;;;;5110877;28;20596;-73
2021/09/04 02:22:12;;;;;;;18.77;14.77;;;16.40;99.90;;;;;;5110610;28;20205;-72
2021/09/04 02:24:38;;;;;;;18.50;14.60;;;16.30;99.90;;;;;;5110125;28;20692;-73
2021/09/04 02:27:05;;;;;;;18.83;15.23;;;16.30;99.90;;;;;;5110487;28;20233;-73
2021/09/04 02:29:32;;;;;;;21.30;15.23;;;16.30;99.90;;;;;;5110665;28;20271;-72
2021/09/04 02:31:59;;;;;;;17.73;14.60;;;16.20;99.90;;;;;;5110269;28;20273;-73
2021/09/04 02:34:25;;;;;;;17.60;13.37;;;16.20;99.90;;;;;;5110420;28;20206;-72
2021/09/04 02:36:53;;;;;;;19.13;14.70;;;16.20;99.90;;;;;;5110121;28;20287;-73
2021/09/04 02:39:20;;;;;;;18.00;14.60;;;16.20;99.90;;;;;;5110512;28;20540;-72
2021/09/04 02:41:46;;;;;;;16.33;14.03;;;16.10;99.90;;;;;;5110346;28;20206;-73
2021/09/04 02:44:13;;;;;;;18.10;14.67;;;16.10;99.90;;;;;;5110063;28;20275;-73
2021/09/04 02:46:39;;;;;;;19.67;14.97;;;16.00;99.90;;;;;;5110103;28;20223;-73
2021/09/04 02:49:06;;;;;;;17.63;14.80;;;16.00;99.90;;;;;;5110068;28;20257;-73
2021/09/04 02:51:33;;;;;;;18.90;14.50;;;16.00;99.90;;;;;;5109941;28;20629;-73
2021/09/04 02:54:01;;;;;;;17.83;13.77;;;16.10;99.90;;;;;;5109820;28;20209;-73
2021/09/04 02:56:27;;;;;;;14.50;13.00;;;16.00;99.90;;;;;;5109555;28;20258;-73
2021/09/04 02:58:54;;;;;;;16.40;13.53;;;16.00;99.90;;;;;;5109899;28;20210;-72
2021/09/04 03:01:20;;;;;;;16.67;14.10;;;16.00;99.90;;;;;;5109529;28;20202;-73
2021/09/04 03:03:47;;;;;;;16.47;13.53;;;16.00;99.90;;;;;;5109847;28;20607;-73
2021/09/04 03:06:13;;;;;;;19.83;14.37;;;16.00;99.90;;;;;;5109403;28;20665;-73
2021/09/04 03:08:40;;;;;;;20.13;14.87;;;16.00;99.90;;;;;;5109917;28;20658;-73
2021/09/04 03:11:08;;;;;;;17.07;13.73;;;16.10;99.90;;;;;;5109167;28;20766;-73
2021/09/04 03:13:35;;;;;;;23.13;15.10;;;16.00;99.90;;;;;;5109751;28;20198;-73
2021/09/04 03:16:02;;;;;;;19.50;15.53;;;16.00;99.90;;;;;;5109797;28;20241;-73
2021/09/04 03:18:28;;;;;;;18.80;14.97;;;15.60;99.90;;;;;;5109166;28;20207;-73
2021/09/04 03:20:55;;;;;;;19.03;15.47;;;15.50;99.90;;;;;;5108658;28;20657;-73
2021/09/04 03:23:22;;;;;;;20.33;14.83;;;15.50;99.90;;;;;;5109376;28;20230;-72
2021/09/04 03:25:48;;;;;;;21.67;16.80;;;15.60;99.90;;;;;;5109497;28;20198;-73
2021/09/04 03:28:16;;;;;;;27.23;17.60;;;15.50;99.90;;;;;;5108421;28;20255;-73
2021/09/04 03:30:43;;;;;;;26.57;16.93;;;15.40;99.90;;;;;;5109236;28;20206;-73
2021/09/04 03:33:10;;;;;;;27.87;17.07;;;15.30;99.90;;;;;;5108949;28;20261;-73
2021/09/04 03:35:36;;;;;;;26.43;17.10;;;15.20;99.90;;;;;;5109260;28;20233;-72
2021/09/04 03:38:03;;;;;;;23.20;16.40;;;15.20;99.90;;;;;;5109152;28;20267;-73
2021/09/04 03:40:29;;;;;;;23.03;17.57;;;15.30;99.90;;;;;;5109332;28;20251;-72
2021/09/04 03:42:56;;;;;;;29.33;18.37;;;15.40;99.90;;;;;;5109028;28;20635;-73
2021/09/04 03:45:24;;;;;;;24.67;16.70;;;15.40;99.90;;;;;;5109036;28;20218;-73
2021/09/04 03:47:51;;;;;;;22.63;17.27;;;15.30;99.90;;;;;;5109176;28;20222;-72
2021/09/04 03:50:17;;;;;;;21.60;16.77;;;15.40;99.90;;;;;;5109225;28;20600;-72
2021/09/04 03:52:44;;;;;;;26.50;17.77;;;15.50;99.90;;;;;;5108941;28;20265;-73
2021/09/04 03:55:11;;;;;;;21.83;16.80;;;15.30;99.90;;;;;;5108687;28;20265;-73
2021/09/04 03:57:37;;;;;;;19.77;15.73;;;15.20;99.90;;;;;;5108815;28;20274;-72
2021/09/04 04:00:04;;;;;;;20.67;15.67;;;15.30;99.90;;;;;;5108736;28;20234;-72
2021/09/04 04:02:32;;;;;;;20.40;15.67;;;15.30;99.90;;;;;;5108716;28;20571;-73
2021/09/04 04:04:59;;;;;;;17.57;14.80;;;15.40;99.90;;;;;;5108619;28;20697;-72
2021/09/04 04:07:25;;;;;;;24.70;14.40;;;15.40;99.90;;;;;;5108841;28;20264;-72
2021/09/04 04:09:52;;;;;;;29.37;14.33;;;15.10;99.90;;;;;;5108810;28;20583;-73
2021/09/04 04:12:19;;;;;;;17.77;13.40;;;14.60;99.90;;;;;;5108787;28;20273;-73
2021/09/04 04:14:45;;;;;;;16.20;13.90;;;14.50;99.90;;;;;;5108979;28;20267;-72
2021/09/04 04:17:12;;;;;;;18.13;14.37;;;14.60;99.90;;;;;;5108575;28;20233;-74
2021/09/04 04:19:40;;;;;;;17.07;14.60;;;14.80;99.90;;;;;;5108680;28;20206;-72
2021/09/04 04:22:06;;;;;;;19.77;13.30;;;14.80;99.90;;;;;;5108657;28;20237;-72
2021/09/04 04:24:33;;;;;;;24.47;13.30;;;14.80;99.90;;;;;;5108481;28;20307;-72
2021/09/04 04:27:01;;;;;;;16.77;13.43;;;14.50;99.90;;;;;;5108215;28;20713;-72
2021/09/04 04:29:28;;;;;;;15.30;13.00;;;14.40;99.90;;;;;;5108451;28;20687;-73
2021/09/04 04:31:54;;;;;;;16.03;13.53;;;14.60;99.90;;;;;;5112159;28;20295;-72
2021/09/04 04:34:23;;;;;;;15.87;13.83;;;14.50;99.90;;;;;;5112617;28;20247;-73
2021/09/04 04:36:51;;;;;;;21.73;14.13;;;14.50;99.90;;;;;;5112581;28;20254;-72
2021/09/04 04:39:18;;;;;;;25.47;13.67;;;14.40;99.90;;;;;;5112484;28;20209;-72
2021/09/04 04:41:44;;;;;;;17.37;13.90;;;14.40;99.90;;;;;;5112598;28;20202;-72
2021/09/04 04:44:11;;;;;;;19.07;13.83;;;14.50;99.90;;;;;;5112468;28;20286;-73
2021/09/04 04:46:37;;;;;;;18.57;12.97;;;14.50;99.90;;;;;;5112662;28;20218;-73
2021/09/04 04:49:04;;;;;;;15.90;13.47;;;14.50;99.90;;;;;;5112459;28;20282;-72
2021/09/04 04:51:31;;;;;;;18.23;13.80;;;14.40;99.90;;;;;;5112243;28;20252;-72
2021/09/04 04:53:59;;;;;;;18.17;14.10;;;14.60;99.90;;;;;;5112297;28;20241;-72
2021/09/04 04:56:26;;;;;;;16.23;13.83;;;14.80;99.90;;;;;;5111918;28;20238;-72
2021/09/04 04:58:52;;;;;;;15.20;13.53;;;14.90;99.90;;;;;;5112520;28;20209;-73
2021/09/04 05:01:19;;;;;;;18.73;13.83;;;14.90;99.90;;;;;;5112084;28;20591;-72
2021/09/04 05:03:45;;;;;;;20.00;14.47;;;15.00;99.90;;;;;;5112184;28;20267;-73
2021/09/04 05:06:12;;;;;;;21.60;15.23;;;14.80;99.90;;;;;;5112005;28;20283;-72
2021/09/04 05:08:38;;;;;;;17.60;14.00;;;14.60;99.90;;;;;;5112193;28;20259;-72
2021/09/04 05:11:06;;;;;;;20.83;14.70;;;14.70;99.90;;;;;;5112224;28;20249;-72
2021/09/04 05:13:33;;;;;;;20.70;14.70;;;14.50;99.90;;;;;;5111734;28;20757;-72
2021/09/04 05:16:00;;;;;;;21.53;14.90;;;14.50;99.90;;;;;;5111905;28;20206;-72
2021/09/04 05:18:27;;;;;;;19.93;14.07;;;14.70;99.90;;;;;;5111641;28;20206;-72
2021/09/04 05:20:54;;;;;;;17.73;14.37;;;14.60;99.90;;;;;;5111626;28;20303;-72
2021/09/04 05:23:20;;;;;;;16.73;14.10;;;14.80;99.90;;;;;;5111656;28;20257;-72
2021/09/04 05:25:47;;;;;;;16.13;14.17;;;14.90;99.90;;;;;;5111721;28;20255;-72
2021/09/04 05:28:15;;;;;;;15.53;13.90;;;15.00;99.90;;;;;;5111653;28;20241;-73
2021/09/04 05:30:42;;;;;;;17.17;13.43;;;15.10;99.90;;;;;;5112057;27;20334;-73
2021/09/04 05:33:08;;;;;;;14.87;13.07;;;15.00;99.90;;;;;;5111563;28;20265;-72
2021/09/04 05:35:35;;;;;;;16.77;12.97;;;15.10;99.90;;;;;;5111505;28;20248;-72
2021/09/04 05:38:01;;;;;;;15.10;12.57;;;15.10;99.90;;;;;;5111353;28;20286;-72
2021/09/04 05:40:30;;;;;;;15.03;12.90;;;15.10;99.90;;;;;;5111341;28;20228;-72
2021/09/04 05:42:57;;;;;;;18.67;14.23;;;14.90;99.90;;;;;;5110691;28;20352;-72
2021/09/04 05:45:25;;;;;;;18.30;13.93;;;14.70;99.90;;;;;;5111162;28;20382;-72
2021/09/04 05:47:51;;;;;;;16.73;13.63;;;14.80;99.90;;;;;;5110895;28;20227;-72
2021/09/04 05:50:18;;;;;;;17.83;13.97;;;14.90;99.90;;;;;;5110823;28;20252;-72
2021/09/04 05:52:45;;;;;;;21.30;14.57;;;14.80;99.90;;;;;;5111322;28;20262;-72
2021/09/04 05:55:11;;;;;;;18.30;13.67;;;14.90;99.90;;;;;;5110721;28;20229;-72
2021/09/04 05:57:38;;;;;;;16.43;13.73;;;14.90;99.90;;;;;;5111397;28;20206;-73
2021/09/04 06:00:06;;;;;;;18.13;14.13;;;15.00;99.90;;;;;;5111048;28;20228;-72
2021/09/04 06:02:34;;;;;;;16.43;13.60;;;15.10;99.90;;;;;;5110915;28;20996;-72
2021/09/04 06:05:00;;;;;;;17.57;13.30;;;15.20;99.90;;;;;;5110976;27;20286;-72
2021/09/04 06:07:27;;;;;;;18.20;14.00;;;15.00;99.90;;;;;;5110950;28;20263;-72
2021/09/04 06:09:53;;;;;;;18.50;13.97;;;14.90;99.90;;;;;;5111104;28;20214;-72
2021/09/04 06:12:20;;;;;;;16.37;13.90;;;15.00;99.90;;;;;;5110731;28;20206;-72
2021/09/04 06:14:47;;;;;;;18.53;14.23;;;15.00;99.90;;;;;;5110886;28;20271;-72
2021/09/04 06:17:13;;;;;;;17.50;13.60;;;15.10;99.90;;;;;;5110950;28;20237;-73
2021/09/04 06:19:41;;;;;;;19.73;13.83;;;15.10;99.90;;;;;;5110696;28;20206;-72
2021/09/04 06:22:08;;;;;;;17.37;13.97;;;15.20;99.90;;;;;;5110646;28;20210;-73
2021/09/04 06:24:34;;;;;;;16.57;13.57;;;15.10;99.90;;;;;;5110645;28;20254;-72
2021/09/04 06:27:01;;;;;;;17.97;13.90;;;15.10;99.90;;;;;;5110069;28;20740;-72
2021/09/04 06:29:28;;;;;;;16.23;12.93;;;15.20;99.90;;;;;;5110237;28;20224;-72
2021/09/04 06:31:54;;;;;;;16.87;13.47;;;15.40;99.90;;;;;;5110639;28;20274;-72
2021/09/04 06:34:21;;;;;;;15.73;12.67;;;15.30;99.90;;;;;;5110113;28;20234;-72
2021/09/04 06:36:49;;;;;;;17.80;12.50;;;15.40;99.90;;;;;;5110288;28;20248;-72
2021/09/04 06:39:15;;;;;;;15.97;13.13;;;15.00;99.90;;;;;;5110257;28;20306;-73
2021/09/04 06:41:42;;;;;;;16.80;12.77;;;14.80;99.90;;;;;;5110201;28;20202;-72
2021/09/04 06:44:09;;;;;;;16.57;13.03;;;14.90;99.90;;;;;;5109810;28;20334;-72
2021/09/04 06:46:35;;;;;;;15.37;13.60;;;15.00;99.90;;;;;;5110385;28;20270;-72
2021/09/04 06:49:02;;;;;;;16.67;14.33;;;15.10;99.90;;;;;;5109526;28;20765;-72
2021/09/04 06:51:29;;;;;;;15.87;12.63;;;14.80;99.90;;;;;;5109910;28;20255;-72
2021/09/04 06:53:57;;;;;;;17.77;13.57;;;14.70;99.90;;;;;;5110055;28;20222;-72
2021/09/04 06:56:25;;;;;;;20.33;14.03;;;14.50;99.90;;;;;;5109548;28;20253;-72
2021/09/04 06:58:52;;;;;;;18.53;12.70;;;14.50;99.90;;;;;;5109677;28;20691;-72
2021/09/04 07:01:18;;;;;;;18.47;13.33;;;14.60;99.90;;;;;;5109769;28;20251;-72
2021/09/04 07:03:45;;;;;;;17.60;13.83;;;14.70;99.90;;;;;;5109765;28;20259;-72
2021/09/04 07:06:12;;;;;;;18.83;13.97;;;14.70;99.90;;;;;;5109333;28;21003;-73
2021/09/04 07:08:39;;;;;;;18.57;13.93;;;14.60;99.90;;;;;;5109859;28;20235;-72
2021/09/04 07:11:07;;;;;;;19.03;13.23;;;14.80;99.90;;;;;;5109410;28;20238;-73
2021/09/04 07:13:33;;;;;;;18.13;13.07;;;14.80;99.90;;;;;;5109541;28;20614;-72
2021/09/04 07:16:00;;;;;;;17.50;14.30;;;14.90;99.90;;;;;;5109531;28;20567;-72
2021/09/04 07:18:27;;;;;;;16.90;13.47;;;14.90;99.90;;;;;;5109228;28;20683;-73
2021/09/04 07:20:53;;;;;;;15.73;13.30;;;14.80;99.90;;;;;;5109658;28;20267;-73
2021/09/04 07:23:20;;;;;;;16.27;13.33;;;14.60;99.90;;;;;;5109422;28;20283;-72
2021/09/04 07:25:47;;;;;;;19.23;13.83;;;14.70;99.90;;;;;;5109466;28;20346;-72
2021/09/04 07:28:15;;;;;;;16.80;13.40;;;14.80;99.90;;;;;;5109028;28;20664;-71
2021/09/04 07:30:41;;;;;;;19.37;13.80;;;14.70;99.90;;;;;;5109418;28;20210;-72
2021/09/04 07:33:08;;;;;;;19.00;13.03;;;14.60;99.90;;;;;;5109084;28;20257;-72
2021/09/04 07:35:34;;;;;;;25.17;14.80;;;14.50;99.90;;;;;;5109320;28;20202;-72
2021/09/04 07:38:01;;;;;;;23.10;14.90;;;14.50;99.90;;;;;;5109157;28;20286;-72
2021/09/04 07:40:28;;;;;;;18.43;13.57;;;14.60;99.90;;;;;;5109245;28;20206;-72
2021/09/04 07:42:55;;;;;;;19.03;13.33;;;14.60;99.90;;;;;;5109189;28;20209;-72
2021/09/04 07:45:22;;;;;;;16.50;12.67;;;14.80;99.90;;;;;;5108787;28;20279;-72
2021/09/04 07:47:49;;;;;;;18.63;13.50;;;15.00;99.90;;;;;;5108651;28;20695;-72
2021/09/04 07:50:16;;;;;;;17.57;13.40;;;15.20;99.90;;;;;;5108858;28;20210;-72
2021/09/04 07:52:43;;;;;;;17.87;13.43;;;15.30;99.90;;;;;;5108812;28;20607;-72
2021/09/04 07:55:09;;;;;;;18.83;13.40;;;15.30;99.90;;;;;;5108539;28;20261;-72
2021/09/04 07:57:36;;;;;;;15.43;13.00;;;15.10;99.90;;;;;;5108842;28;20663;-72
2021/09/04 08:00:04;;;;;;;16.10;12.97;;;15.00;99.90;;;;;;5108871;28;20338;-72
2021/09/04 08:02:31;;;;;;;16.83;13.37;;;15.00;99.90;;;;;;5108800;28;20210;-72
2021/09/04 08:04:58;;;;;;;21.07;14.27;;;14.90;99.90;;;;;;5108479;28;20267;-72
2021/09/04 08:07:25;;;;;;;18.50;13.00;;;14.80;99.90;;;;;;5108422;28;20812;-72
2021/09/04 08:09:51;;;;;;;18.83;13.13;;;14.90;99.90;;;;;;5108774;28;20202;-72
2021/09/04 08:12:18;;;;;;;23.43;14.23;;;15.00;99.90;;;;;;5108718;28;20205;-72
2021/09/04 08:14:44;;;;;;;21.80;14.27;;;15.00;99.90;;;;;;5108462;28;20322;-72
2021/09/04 08:17:11;;;;;;;19.33;12.73;;;15.20;99.90;;;;;;5108537;28;20198;-72
2021/09/04 08:19:39;;;;;;;21.27;13.47;;;15.40;99.90;;;;;;5108698;28;20229;-72
2021/09/04 08:22:06;;;;;;;22.00;13.20;;;15.50;99.90;;;;;;5108652;28;20209;-72
2021/09/04 08:24:33;;;;;;;17.93;13.33;;;15.30;99.90;;;;;;5108637;28;20258;-72
2021/09/04 08:27:01;;;;;;;19.83;13.03;;;15.30;99.90;;;;;;5108658;28;20202;-72
2021/09/04 08:29:29;;;;;;;20.10;13.40;;;15.30;99.90;;;;;;5108567;28;20255;-72
2021/09/04 08:31:56;;;;;;;20.77;13.43;;;15.30;99.90;;;;;;5108225;28;20665;-72
2021/09/04 08:34:22;;;;;;;21.07;13.50;;;15.40;99.90;;;;;;5108044;28;20608;-72
2021/09/04 08:36:50;;;;;;;21.13;13.93;;;15.40;99.90;;;;;;5108456;28;20216;-72
2021/09/04 08:39:17;;;;;;;21.17;13.37;;;15.40;99.90;;;;;;5108410;28;20202;-72
2021/09/04 08:41:44;;;;;;;23.03;13.73;;;15.50;99.90;;;;;;5108490;28;20202;-72
2021/09/04 08:44:11;;;;;;;24.17;14.33;;;15.60;99.90;;;;;;5108042;28;20766;-72
2021/09/04 08:46:39;;;;;;;22.33;13.77;;;15.70;99.90;;;;;;5108461;28;20198;-72
2021/09/04 08:49:08;;;;;;;25.37;15.27;;;15.70;99.90;;;;;;5108489;28;20237;-72
2021/09/04 08:51:35;;;;;;;22.97;15.53;;;15.90;99.90;;;;;;5108365;28;20242;-72
2021/09/04 08:54:03;;;;;;;24.20;14.60;;;15.70;99.90;;;;;;5108403;28;20275;-72
2021/09/04 08:56:30;;;;;;;25.63;15.90;;;15.70;99.90;;;;;;5108316;28;20206;-72
2021/09/04 08:58:57;;;;;;;23.57;15.73;;;15.70;99.90;;;;;;5108617;28;20206;-72
2021/09/04 09:01:27;;;;;;;22.87;14.53;;;15.50;99.90;;;;;;5108213;28;20206;-72
2021/09/04 09:03:55;;;;;;;28.90;14.60;;;15.40;99.90;;;;;;5108401;28;20191;-72
2021/09/04 09:06:26;;;;;;;22.07;15.00;;;15.40;99.90;;;;;;5108046;28;20241;-72
2021/09/04 09:08:53;;;;;;;22.33;14.00;;;15.50;99.90;;;;;;5108164;28;20692;-72
2021/09/04 09:11:21;;;;;;;20.87;13.20;;;15.50;99.90;;;;;;5108242;28;20208;-72
2021/09/04 09:13:50;;;;;;;22.67;12.67;;;15.60;99.90;;;;;;5108415;28;20257;-72
2021/09/04 09:16:17;;;;;;;22.57;12.70;;;15.80;99.90;;;;;;5107984;28;20202;-73
2021/09/04 09:18:56;;;;;;;22.87;12.97;;;15.90;99.90;;;;;;5110967;28;20242;-72
2021/09/04 09:21:27;;;;;;;24.00;13.87;;;15.70;99.90;;;;;;5111728;28;20198;-72
2021/09/04 09:24:07;;;;;;;22.20;14.97;;;15.60;99.90;;;;;;5111555;28;20708;-72
2021/09/04 09:26:35;;;;;;;20.20;14.83;;;15.70;99.90;;;;;;5111878;28;20194;-72
2021/09/04 09:29:18;;;;;;;19.50;12.67;;;15.80;99.90;;;;;;5111735;28;20228;-72
2021/09/04 09:31:45;;;;;;;18.73;12.70;;;16.00;99.90;;;;;;5111480;28;20732;-72
2021/09/04 09:34:13;;;;;;;16.90;12.37;;;16.00;99.90;;;;;;5111513;28;20269;-72
2021/09/04 09:36:53;;;;;;;22.63;12.87;;;15.90;99.90;;;;;;5111237;28;20833;-72
2021/09/04 09:39:24;;;;;;;20.23;12.27;;;15.90;99.90;;;;;;5111436;28;20186;-72
2021/09/04 09:41:53;;;;;;;19.00;12.00;;;16.00;99.90;;;;;;5111485;28;20201;-72
2021/09/04 09:44:21;;;;;;;14.47;10.20;;;16.00;99.90;;;;;;5111303;28;20299;-72
2021/09/04 09:46:52;;;;;;;17.17;11.77;;;16.10;99.90;;;;;;5111131;28;20228;-72
2021/09/04 09:49:25;;;;;;;21.20;13.57;;;16.20;99.90;;;;;;5111203;28;20256;-72
2021/09/04 09:51:52;;;;;;;20.40;12.17;;;16.10;99.90;;;;;;5111228;28;20251;-72
2021/09/04 09:54:19;;;;;;;18.73;12.70;;;16.10;99.90;;;;;;5110859;28;20633;-72
2021/09/04 09:56:46;;;;;;;19.47;12.43;;;16.10;99.90;;;;;;5110993;28;20203;-72
2021/09/04 09:59:14;;;;;;;18.80;12.23;;;16.10;99.90;;;;;;5110903;28;20832;-72
2021/09/04 10:01:42;;;;;;;15.40;11.57;;;16.00;99.90;;;;;;5111223;28;20198;-72
2021/09/04 10:04:11;;;;;;;17.73;11.53;;;15.90;99.90;;;;;;5111242;28;20615;-72
2021/09/04 10:06:39;;;;;;;17.43;11.63;;;16.00;99.90;;;;;;5110953;28;20209;-72
2021/09/04 10:09:06;;;;;;;16.77;11.80;;;15.90;99.90;;;;;;5110924;28;20228;-72
2021/09/04 10:11:36;;;;;;;17.20;11.73;;;16.00;99.90;;;;;;5110789;28;20202;-72
2021/09/04 10:14:03;;;;;;;17.27;12.57;;;16.20;99.90;;;;;;5110769;28;20230;-72
2021/09/04 10:16:31;;;;;;;17.57;11.70;;;16.20;99.90;;;;;;5110933;28;20237;-72
2021/09/04 10:18:58;;;;;;;15.63;10.40;;;16.10;99.90;;;;;;5110813;28;20634;-72
2021/09/04 10:21:26;;;;;;;19.60;11.20;;;16.10;99.90;;;;;;5110492;28;20221;-72
2021/09/04 10:23:56;;;;;;;17.10;11.07;;;16.10;99.90;;;;;;5110638;28;20712;-72
2021/09/04 10:26:28;;;;;;;16.43;10.53;;;16.10;99.90;;;;;;5110553;28;20297;-72
2021/09/04 10:29:02;;;;;;;18.57;11.67;;;16.20;99.90;;;;;;5109802;27;20198;-72
2021/09/04 10:31:48;;;;;;;15.50;10.40;;;16.20;99.90;;;;;;5109034;28;20602;-72
2021/09/04 10:34:16;;;;;;;17.70;11.07;;;16.20;99.90;;;;;;5108974;28;20222;-73
2021/09/04 10:37:07;;;;;;;13.60;10.13;;;16.40;99.90;;;;;;5110107;28;20813;-72
2021/09/04 10:39:51;;;;;;;13.87;10.10;;;16.50;99.90;;;;;;5110438;28;20194;-72
2021/09/04 10:42:19;;;;;;;15.07;10.13;;;16.50;99.90;;;;;;5110193;28;20235;-73
2021/09/04 10:44:47;;;;;;;14.77;11.33;;;16.50;99.90;;;;;;5110120;28;20219;-72
2021/09/04 10:47:16;;;;;;;16.20;10.20;;;16.40;99.90;;;;;;5109899;28;20233;-72
2021/09/04 10:49:45;;;;;;;21.97;12.90;;;16.50;99.90;;;;;;5109971;28;20206;-73
2021/09/04 10:52:12;;;;;;;17.67;12.57;;;16.50;99.90;;;;;;5109960;28;20227;-73
2021/09/04 10:54:54;;;;;;;21.90;13.17;;;16.40;99.90;;;;;;5109815;28;20307;-72
2021/09/04 10:57:21;;;;;;;18.53;12.53;;;16.30;99.90;;;;;;5109931;28;20217;-73
2021/09/04 11:00:17;;;;;;;20.47;12.90;;;16.30;99.90;;;;;;5109911;28;20736;-73
2021/09/04 11:02:48;;;;;;;24.20;14.03;;;16.40;99.90;;;;;;5109996;28;20198;-73
2021/09/04 11:05:28;;;;;;;24.83;12.77;;;16.50;99.90;;;;;;5109992;28;20201;-73
2021/09/04 11:08:02;;;;;;;21.53;12.20;;;16.50;99.90;;;;;;5109615;28;20227;-72
2021/09/04 11:10:29;;;;;;;23.80;13.00;;;16.40;99.90;;;;;;5109792;28;20263;-72
2021/09/04 11:13:36;;;;;;;26.20;17.60;;;16.40;99.90;;;;;;5109905;28;20241;-72
2021/09/04 11:16:26;;;;;;;20.70;12.37;;;16.50;99.90;;;;;;5097930;28;20776;-72
2021/09/04 11:18:54;;;;;;;19.93;11.40;;;16.60;99.90;;;;;;5109701;28;20271;-73
2021/09/04 11:21:22;;;;;;;14.47;11.03;;;16.80;99.90;;;;;;5109487;28;20256;-73
2021/09/04 11:23:49;;;;;;;16.60;11.43;;;16.90;99.90;;;;;;5109423;28;20291;-72
2021/09/04 11:26:15;;;;;;;18.37;11.73;;;17.00;99.90;;;;;;5109387;28;20290;-73
2021/09/04 11:28:42;;;;;;;17.13;11.83;;;17.00;99.90;;;;;;5109526;28;20233;-73
2021/09/04 11:31:09;;;;;;;19.37;10.90;;;16.90;99.90;;;;;;5109269;28;20290;-73
2021/09/04 11:33:35;;;;;;;15.97;11.17;;;16.90;99.90;;;;;;5109311;28;20210;-73
2021/09/04 11:36:04;;;;;;;21.53;10.53;;;17.10;99.90;;;;;;5109095;28;20656;-73
2021/09/04 11:38:30;;;;;;;15.87;10.30;;;17.20;99.90;;;;;;5109080;28;20206;-72
2021/09/04 11:40:57;;;;;;;19.57;11.47;;;17.40;99.90;;;;;;5108502;28;20582;-73
2021/09/04 11:43:26;;;;;;;16.57;10.67;;;17.50;99.90;;;;;;5108850;28;20258;-73
2021/09/04 11:46:01;;;;;;;20.33;11.70;;;17.60;99.90;;;;;;5109153;28;20263;-73
2021/09/04 11:48:27;;;;;;;16.70;11.23;;;17.60;99.90;;;;;;5109067;28;20651;-73
2021/09/04 11:51:03;;;;;;;16.00;10.47;;;17.80;99.90;;;;;;5108644;28;20267;-73
2021/09/04 11:53:31;;;;;;;12.20;10.03;;;17.80;99.90;;;;;;5108589;28;20233;-73
2021/09/04 11:55:58;;;;;;;15.07;10.97;;;17.90;99.90;;;;;;5108404;28;20619;-73
2021/09/04 11:58:27;;;;;;;17.77;11.37;;;17.90;99.90;;;;;;5108495;28;20249;-73
2021/09/04 12:00:54;;;;;;;22.80;11.40;;;17.90;99.90;;;;;;5108829;28;20206;-73
2021/09/04 12:03:27;;;;;;;18.23;10.77;;;17.90;99.90;;;;;;5108625;28;20238;-73
2021/09/04 12:05:54;;;;;;;23.03;11.07;;;17.90;99.90;;;;;;5108480;28;20195;-72
2021/09/04 12:08:23;;;;;;;18.00;11.33;;;17.70;99.90;;;;;;5108515;28;20583;-73
2021/09/04 12:10:51;;;;;;;17.20;10.97;;;17.70;99.90;;;;;;5108629;28;20232;-73
2021/09/04 12:13:20;;;;;;;20.37;11.40;;;17.60;99.90;;;;;;5108644;28;20214;-73
2021/09/04 12:15:47;;;;;;;18.70;11.30;;;17.60;99.90;;;;;;5108335;28;20226;-73
2021/09/04 12:18:27;;;;;;;21.87;11.57;;;17.50;99.90;;;;;;5108432;28;20283;-73
2021/09/04 12:20:53;;;;;;;16.00;10.47;;;17.50;99.90;;;;;;5108406;28;20236;-73
2021/09/04 12:23:22;;;;;;;14.70;9.93;;;17.60;99.90;;;;;;5108321;28;20314;-73
2021/09/04 12:25:52;;;;;;;18.43;11.70;;;17.70;99.90;;;;;;5108527;28;20234;-73
2021/09/04 12:28:24;;;;;;;15.97;10.40;;;17.70;99.90;;;;;;5108637;28;20186;-73
2021/09/04 12:31:00;;;;;;;17.27;11.17;;;17.70;99.90;;;;;;5108522;28;20251;-73
2021/09/04 12:33:27;;;;;;;16.80;10.53;;;17.80;99.90;;;;;;5108322;28;20202;-73